sensor_id;sensor_type;location;lat;lon;timestamp;P1;durP1;ratioP1;P2;durP2;ratioP2
20894;SDS011;10607;42.066;24.742;2023-05-20T00:00:52;11.20;;;5.95;;
20894;SDS011;10607;42.066;24.742;2023-05-20T00:03:17;11.73;;;6.50;;
20894;SDS011;10607;42.066;24.742;2023-05-20T00:05:44;13.73;;;6.20;;
20894;SDS011;10607;42.066;24.742;2023-05-20T00:08:09;11.43;;;6.25;;
20894;SDS011;10607;42.066;24.742;2023-05-20T00:10:35;10.18;;;6.35;;
20894;SDS011;10607;42.066;24.742;2023-05-20T00:13:00;7.75;;;5.65;;
20894;SDS011;10607;42.066;24.742;2023-05-20T00:15:26;13.00;;;6.53;;
20894;SDS011;10607;42.066;24.742;2023-05-20T00:17:51;8.02;;;5.85;;
20894;SDS011;10607;42.066;24.742;2023-05-20T00:20:16;10.18;;;6.32;;
20894;SDS011;10607;42.066;24.742;2023-05-20T00:22:42;11.05;;;6.43;;
20894;SDS011;10607;42.066;24.742;2023-05-20T00:25:07;9.90;;;5.78;;
20894;SDS011;10607;42.066;24.742;2023-05-20T00:27:32;12.57;;;6.45;;
20894;SDS011;10607;42.066;24.742;2023-05-20T00:29:58;11.48;;;6.45;;
20894;SDS011;10607;42.066;24.742;2023-05-20T00:32:23;12.05;;;6.88;;
20894;SDS011;10607;42.066;24.742;2023-05-20T00:34:55;10.75;;;7.13;;
20894;SDS011;10607;42.066;24.742;2023-05-20T00:37:21;16.15;;;6.15;;
20894;SDS011;10607;42.066;24.742;2023-05-20T00:39:47;10.65;;;6.50;;
20894;SDS011;10607;42.066;24.742;2023-05-20T00:42:18;9.23;;;6.07;;
20894;SDS011;10607;42.066;24.742;2023-05-20T00:44:43;10.20;;;5.85;;
20894;SDS011;10607;42.066;24.742;2023-05-20T00:47:08;10.75;;;6.50;;
20894;SDS011;10607;42.066;24.742;2023-05-20T00:49:34;15.07;;;6.40;;
20894;SDS011;10607;42.066;24.742;2023-05-20T00:51:59;10.40;;;5.75;;
20894;SDS011;10607;42.066;24.742;2023-05-20T00:54:25;9.93;;;6.40;;
20894;SDS011;10607;42.066;24.742;2023-05-20T00:56:50;15.57;;;6.30;;
20894;SDS011;10607;42.066;24.742;2023-05-20T00:59:15;12.73;;;6.60;;
20894;SDS011;10607;42.066;24.742;2023-05-20T01:01:41;9.60;;;5.57;;
20894;SDS011;10607;42.066;24.742;2023-05-20T01:04:06;11.27;;;6.38;;
20894;SDS011;10607;42.066;24.742;2023-05-20T01:06:31;9.25;;;6.28;;
20894;SDS011;10607;42.066;24.742;2023-05-20T01:08:57;9.63;;;6.55;;
20894;SDS011;10607;42.066;24.742;2023-05-20T01:11:27;8.68;;;6.28;;
20894;SDS011;10607;42.066;24.742;2023-05-20T01:13:54;12.30;;;6.93;;
20894;SDS011;10607;42.066;24.742;2023-05-20T01:16:22;13.95;;;6.93;;
20894;SDS011;10607;42.066;24.742;2023-05-20T01:18:48;11.50;;;7.00;;
20894;SDS011;10607;42.066;24.742;2023-05-20T01:21:15;13.70;;;6.80;;
20894;SDS011;10607;42.066;24.742;2023-05-20T01:23:41;10.27;;;6.80;;
20894;SDS011;10607;42.066;24.742;2023-05-20T01:26:06;12.27;;;7.68;;
20894;SDS011;10607;42.066;24.742;2023-05-20T01:28:32;13.07;;;7.70;;
20894;SDS011;10607;42.066;24.742;2023-05-20T01:30:59;11.38;;;7.93;;
20894;SDS011;10607;42.066;24.742;2023-05-20T01:33:25;11.85;;;7.47;;
20894;SDS011;10607;42.066;24.742;2023-05-20T01:35:52;12.50;;;7.40;;
20894;SDS011;10607;42.066;24.742;2023-05-20T01:38:18;12.05;;;7.53;;
20894;SDS011;10607;42.066;24.742;2023-05-20T01:40:44;12.82;;;6.90;;
20894;SDS011;10607;42.066;24.742;2023-05-20T01:43:10;8.93;;;6.75;;
20894;SDS011;10607;42.066;24.742;2023-05-20T01:45:36;13.40;;;7.60;;
20894;SDS011;10607;42.066;24.742;2023-05-20T01:48:04;13.73;;;7.10;;
20894;SDS011;10607;42.066;24.742;2023-05-20T01:50:29;10.82;;;7.15;;
20894;SDS011;10607;42.066;24.742;2023-05-20T01:52:54;13.07;;;7.72;;
20894;SDS011;10607;42.066;24.742;2023-05-20T01:55:20;12.70;;;7.90;;
20894;SDS011;10607;42.066;24.742;2023-05-20T01:57:45;10.02;;;7.70;;
20894;SDS011;10607;42.066;24.742;2023-05-20T02:00:11;14.98;;;7.47;;
20894;SDS011;10607;42.066;24.742;2023-05-20T02:02:36;14.25;;;6.70;;
20894;SDS011;10607;42.066;24.742;2023-05-20T02:05:02;15.95;;;7.72;;
20894;SDS011;10607;42.066;24.742;2023-05-20T02:07:27;39.50;;;27.92;;
20894;SDS011;10607;42.066;24.742;2023-05-20T02:09:52;18.77;;;13.57;;
20894;SDS011;10607;42.066;24.742;2023-05-20T02:12:17;17.60;;;13.43;;
20894;SDS011;10607;42.066;24.742;2023-05-20T02:14:43;18.08;;;12.43;;
20894;SDS011;10607;42.066;24.742;2023-05-20T02:17:09;21.20;;;13.82;;
20894;SDS011;10607;42.066;24.742;2023-05-20T02:19:34;17.40;;;11.32;;
20894;SDS011;10607;42.066;24.742;2023-05-20T02:22:00;15.35;;;10.55;;
20894;SDS011;10607;42.066;24.742;2023-05-20T02:24:25;16.42;;;11.25;;
20894;SDS011;10607;42.066;24.742;2023-05-20T02:26:50;15.77;;;10.63;;
20894;SDS011;10607;42.066;24.742;2023-05-20T02:29:17;13.27;;;8.32;;
20894;SDS011;10607;42.066;24.742;2023-05-20T02:31:44;12.85;;;9.00;;
20894;SDS011;10607;42.066;24.742;2023-05-20T02:34:09;14.57;;;8.25;;
20894;SDS011;10607;42.066;24.742;2023-05-20T02:36:35;16.17;;;8.35;;
20894;SDS011;10607;42.066;24.742;2023-05-20T02:39:00;13.23;;;7.60;;
20894;SDS011;10607;42.066;24.742;2023-05-20T02:41:26;11.45;;;7.97;;
20894;SDS011;10607;42.066;24.742;2023-05-20T02:43:51;13.73;;;7.65;;
20894;SDS011;10607;42.066;24.742;2023-05-20T02:46:16;14.70;;;7.32;;
20894;SDS011;10607;42.066;24.742;2023-05-20T02:48:43;11.32;;;7.10;;
20894;SDS011;10607;42.066;24.742;2023-05-20T02:51:09;10.85;;;7.05;;
20894;SDS011;10607;42.066;24.742;2023-05-20T02:53:35;12.02;;;7.93;;
20894;SDS011;10607;42.066;24.742;2023-05-20T02:56:02;10.65;;;7.53;;
20894;SDS011;10607;42.066;24.742;2023-05-20T02:58:27;16.40;;;7.45;;
20894;SDS011;10607;42.066;24.742;2023-05-20T03:00:53;17.42;;;8.25;;
20894;SDS011;10607;42.066;24.742;2023-05-20T03:03:18;11.77;;;8.60;;
20894;SDS011;10607;42.066;24.742;2023-05-20T03:05:44;15.52;;;8.27;;
20894;SDS011;10607;42.066;24.742;2023-05-20T03:08:10;12.18;;;7.50;;
20894;SDS011;10607;42.066;24.742;2023-05-20T03:10:36;14.88;;;8.32;;
20894;SDS011;10607;42.066;24.742;2023-05-20T03:13:01;12.60;;;8.32;;
20894;SDS011;10607;42.066;24.742;2023-05-20T03:15:27;16.75;;;8.32;;
20894;SDS011;10607;42.066;24.742;2023-05-20T03:17:52;12.00;;;8.38;;
20894;SDS011;10607;42.066;24.742;2023-05-20T03:20:18;18.95;;;8.52;;
20894;SDS011;10607;42.066;24.742;2023-05-20T03:22:43;15.20;;;8.38;;
20894;SDS011;10607;42.066;24.742;2023-05-20T03:25:08;11.48;;;8.32;;
20894;SDS011;10607;42.066;24.742;2023-05-20T03:27:34;15.27;;;8.00;;
20894;SDS011;10607;42.066;24.742;2023-05-20T03:30:01;12.30;;;7.82;;
20894;SDS011;10607;42.066;24.742;2023-05-20T03:32:26;14.43;;;8.30;;
20894;SDS011;10607;42.066;24.742;2023-05-20T03:34:52;13.35;;;7.22;;
20894;SDS011;10607;42.066;24.742;2023-05-20T03:37:18;17.58;;;7.88;;
20894;SDS011;10607;42.066;24.742;2023-05-20T03:39:43;10.23;;;7.18;;
20894;SDS011;10607;42.066;24.742;2023-05-20T03:42:09;13.75;;;7.45;;
20894;SDS011;10607;42.066;24.742;2023-05-20T03:44:34;11.10;;;7.40;;
20894;SDS011;10607;42.066;24.742;2023-05-20T03:47:00;14.90;;;7.68;;
20894;SDS011;10607;42.066;24.742;2023-05-20T03:49:25;12.88;;;7.55;;
20894;SDS011;10607;42.066;24.742;2023-05-20T03:51:50;12.43;;;7.45;;
20894;SDS011;10607;42.066;24.742;2023-05-20T03:54:15;12.13;;;7.30;;
20894;SDS011;10607;42.066;24.742;2023-05-20T03:56:41;13.85;;;8.23;;
20894;SDS011;10607;42.066;24.742;2023-05-20T03:59:06;11.93;;;8.07;;
20894;SDS011;10607;42.066;24.742;2023-05-20T04:01:31;13.07;;;8.60;;
20894;SDS011;10607;42.066;24.742;2023-05-20T04:03:57;12.23;;;8.40;;
20894;SDS011;10607;42.066;24.742;2023-05-20T04:06:23;14.00;;;8.95;;
20894;SDS011;10607;42.066;24.742;2023-05-20T04:08:48;13.63;;;9.00;;
20894;SDS011;10607;42.066;24.742;2023-05-20T04:11:14;13.77;;;8.27;;
20894;SDS011;10607;42.066;24.742;2023-05-20T04:13:39;14.85;;;9.05;;
20894;SDS011;10607;42.066;24.742;2023-05-20T04:16:04;12.40;;;8.68;;
20894;SDS011;10607;42.066;24.742;2023-05-20T04:18:30;18.88;;;9.00;;
20894;SDS011;10607;42.066;24.742;2023-05-20T04:20:55;10.85;;;8.50;;
20894;SDS011;10607;42.066;24.742;2023-05-20T04:23:21;20.60;;;9.73;;
20894;SDS011;10607;42.066;24.742;2023-05-20T04:25:46;14.55;;;8.48;;
20894;SDS011;10607;42.066;24.742;2023-05-20T04:28:12;18.30;;;9.32;;
20894;SDS011;10607;42.066;24.742;2023-05-20T04:30:40;13.38;;;9.07;;
20894;SDS011;10607;42.066;24.742;2023-05-20T04:33:06;14.30;;;8.82;;
20894;SDS011;10607;42.066;24.742;2023-05-20T04:35:32;29.33;;;10.45;;
20894;SDS011;10607;42.066;24.742;2023-05-20T04:37:59;21.63;;;10.05;;
20894;SDS011;10607;42.066;24.742;2023-05-20T04:40:25;17.08;;;9.60;;
20894;SDS011;10607;42.066;24.742;2023-05-20T04:42:51;19.45;;;9.65;;
20894;SDS011;10607;42.066;24.742;2023-05-20T04:45:16;12.38;;;8.95;;
20894;SDS011;10607;42.066;24.742;2023-05-20T04:47:42;21.23;;;9.98;;
20894;SDS011;10607;42.066;24.742;2023-05-20T04:50:09;15.27;;;9.60;;
20894;SDS011;10607;42.066;24.742;2023-05-20T04:52:40;20.98;;;9.07;;
20894;SDS011;10607;42.066;24.742;2023-05-20T04:55:10;15.95;;;11.57;;
20894;SDS011;10607;42.066;24.742;2023-05-20T04:57:36;19.15;;;11.57;;
20894;SDS011;10607;42.066;24.742;2023-05-20T05:00:04;17.98;;;10.77;;
20894;SDS011;10607;42.066;24.742;2023-05-20T05:02:31;17.40;;;9.00;;
20894;SDS011;10607;42.066;24.742;2023-05-20T05:04:57;14.25;;;8.70;;
20894;SDS011;10607;42.066;24.742;2023-05-20T05:07:22;14.25;;;9.13;;
20894;SDS011;10607;42.066;24.742;2023-05-20T05:09:47;13.88;;;9.85;;
20894;SDS011;10607;42.066;24.742;2023-05-20T05:12:13;14.93;;;9.55;;
20894;SDS011;10607;42.066;24.742;2023-05-20T05:14:38;15.25;;;9.70;;
20894;SDS011;10607;42.066;24.742;2023-05-20T05:17:03;16.23;;;9.75;;
20894;SDS011;10607;42.066;24.742;2023-05-20T05:19:28;16.08;;;9.30;;
20894;SDS011;10607;42.066;24.742;2023-05-20T05:21:54;13.90;;;8.85;;
20894;SDS011;10607;42.066;24.742;2023-05-20T05:24:19;18.63;;;8.80;;
20894;SDS011;10607;42.066;24.742;2023-05-20T05:26:44;12.43;;;8.50;;
20894;SDS011;10607;42.066;24.742;2023-05-20T05:29:10;13.52;;;8.48;;
20894;SDS011;10607;42.066;24.742;2023-05-20T05:31:35;17.02;;;7.72;;
20894;SDS011;10607;42.066;24.742;2023-05-20T05:34:00;13.65;;;7.40;;
20894;SDS011;10607;42.066;24.742;2023-05-20T05:36:26;14.77;;;8.20;;
20894;SDS011;10607;42.066;24.742;2023-05-20T05:38:51;11.90;;;8.52;;
20894;SDS011;10607;42.066;24.742;2023-05-20T05:41:16;13.38;;;8.48;;
20894;SDS011;10607;42.066;24.742;2023-05-20T05:43:41;14.77;;;8.57;;
20894;SDS011;10607;42.066;24.742;2023-05-20T05:46:07;14.05;;;8.18;;
20894;SDS011;10607;42.066;24.742;2023-05-20T05:48:34;15.50;;;8.13;;
20894;SDS011;10607;42.066;24.742;2023-05-20T05:51:00;18.42;;;7.82;;
20894;SDS011;10607;42.066;24.742;2023-05-20T05:53:25;20.77;;;8.18;;
20894;SDS011;10607;42.066;24.742;2023-05-20T05:55:50;18.30;;;7.90;;
20894;SDS011;10607;42.066;24.742;2023-05-20T05:58:16;20.65;;;8.52;;
20894;SDS011;10607;42.066;24.742;2023-05-20T06:00:41;18.73;;;7.93;;
20894;SDS011;10607;42.066;24.742;2023-05-20T06:03:06;19.90;;;7.65;;
20894;SDS011;10607;42.066;24.742;2023-05-20T06:05:32;12.45;;;7.43;;
20894;SDS011;10607;42.066;24.742;2023-05-20T06:07:57;13.82;;;7.63;;
20894;SDS011;10607;42.066;24.742;2023-05-20T06:10:22;14.48;;;7.65;;
20894;SDS011;10607;42.066;24.742;2023-05-20T06:12:48;12.05;;;6.97;;
20894;SDS011;10607;42.066;24.742;2023-05-20T06:15:13;13.70;;;7.28;;
20894;SDS011;10607;42.066;24.742;2023-05-20T06:17:38;12.52;;;6.95;;
20894;SDS011;10607;42.066;24.742;2023-05-20T06:20:04;16.65;;;7.68;;
20894;SDS011;10607;42.066;24.742;2023-05-20T06:22:29;14.73;;;7.40;;
20894;SDS011;10607;42.066;24.742;2023-05-20T06:24:54;14.70;;;7.55;;
20894;SDS011;10607;42.066;24.742;2023-05-20T06:27:20;12.88;;;6.97;;
20894;SDS011;10607;42.066;24.742;2023-05-20T06:29:46;17.13;;;6.53;;
20894;SDS011;10607;42.066;24.742;2023-05-20T06:32:11;10.93;;;6.85;;
20894;SDS011;10607;42.066;24.742;2023-05-20T06:34:36;13.52;;;6.63;;
20894;SDS011;10607;42.066;24.742;2023-05-20T06:37:01;15.50;;;7.20;;
20894;SDS011;10607;42.066;24.742;2023-05-20T06:39:27;11.35;;;6.57;;
20894;SDS011;10607;42.066;24.742;2023-05-20T06:41:52;11.45;;;6.22;;
20894;SDS011;10607;42.066;24.742;2023-05-20T06:44:18;9.15;;;7.03;;
20894;SDS011;10607;42.066;24.742;2023-05-20T06:46:43;13.48;;;6.72;;
20894;SDS011;10607;42.066;24.742;2023-05-20T06:49:08;13.50;;;6.75;;
20894;SDS011;10607;42.066;24.742;2023-05-20T06:51:34;22.50;;;7.32;;
20894;SDS011;10607;42.066;24.742;2023-05-20T06:53:59;13.07;;;6.20;;
20894;SDS011;10607;42.066;24.742;2023-05-20T06:56:24;10.20;;;6.88;;
20894;SDS011;10607;42.066;24.742;2023-05-20T06:58:50;11.27;;;6.93;;
20894;SDS011;10607;42.066;24.742;2023-05-20T07:01:15;16.73;;;6.35;;
20894;SDS011;10607;42.066;24.742;2023-05-20T07:03:40;13.25;;;6.53;;
20894;SDS011;10607;42.066;24.742;2023-05-20T07:06:06;13.68;;;7.07;;
20894;SDS011;10607;42.066;24.742;2023-05-20T07:08:32;10.57;;;6.40;;
20894;SDS011;10607;42.066;24.742;2023-05-20T07:10:57;15.13;;;6.10;;
20894;SDS011;10607;42.066;24.742;2023-05-20T07:13:22;18.50;;;7.53;;
20894;SDS011;10607;42.066;24.742;2023-05-20T07:15:50;13.00;;;6.93;;
20894;SDS011;10607;42.066;24.742;2023-05-20T07:18:16;10.25;;;6.43;;
20894;SDS011;10607;42.066;24.742;2023-05-20T07:20:41;10.43;;;6.50;;
20894;SDS011;10607;42.066;24.742;2023-05-20T07:23:06;11.70;;;6.65;;
20894;SDS011;10607;42.066;24.742;2023-05-20T07:25:32;12.63;;;6.47;;
20894;SDS011;10607;42.066;24.742;2023-05-20T07:27:57;12.50;;;6.80;;
20894;SDS011;10607;42.066;24.742;2023-05-20T07:30:24;8.70;;;6.28;;
20894;SDS011;10607;42.066;24.742;2023-05-20T07:32:49;18.25;;;7.15;;
20894;SDS011;10607;42.066;24.742;2023-05-20T07:35:15;11.18;;;7.85;;
20894;SDS011;10607;42.066;24.742;2023-05-20T07:37:40;12.48;;;8.07;;
20894;SDS011;10607;42.066;24.742;2023-05-20T07:40:05;14.52;;;7.57;;
20894;SDS011;10607;42.066;24.742;2023-05-20T07:42:31;10.32;;;6.57;;
20894;SDS011;10607;42.066;24.742;2023-05-20T07:44:57;15.23;;;7.78;;
20894;SDS011;10607;42.066;24.742;2023-05-20T07:47:22;19.45;;;7.78;;
20894;SDS011;10607;42.066;24.742;2023-05-20T07:49:47;11.90;;;7.50;;
20894;SDS011;10607;42.066;24.742;2023-05-20T07:52:12;16.60;;;7.82;;
20894;SDS011;10607;42.066;24.742;2023-05-20T07:54:38;17.88;;;7.70;;
20894;SDS011;10607;42.066;24.742;2023-05-20T07:57:03;12.90;;;7.20;;
20894;SDS011;10607;42.066;24.742;2023-05-20T07:59:28;8.43;;;6.88;;
20894;SDS011;10607;42.066;24.742;2023-05-20T08:01:54;17.27;;;7.22;;
20894;SDS011;10607;42.066;24.742;2023-05-20T08:04:19;12.93;;;7.22;;
20894;SDS011;10607;42.066;24.742;2023-05-20T08:06:44;18.25;;;7.05;;
20894;SDS011;10607;42.066;24.742;2023-05-20T08:09:10;10.80;;;7.00;;
20894;SDS011;10607;42.066;24.742;2023-05-20T08:11:36;16.80;;;7.70;;
20894;SDS011;10607;42.066;24.742;2023-05-20T08:14:01;11.48;;;6.85;;
20894;SDS011;10607;42.066;24.742;2023-05-20T08:16:26;12.55;;;6.85;;
20894;SDS011;10607;42.066;24.742;2023-05-20T08:18:52;13.88;;;7.60;;
20894;SDS011;10607;42.066;24.742;2023-05-20T08:21:17;12.55;;;7.50;;
20894;SDS011;10607;42.066;24.742;2023-05-20T08:23:42;10.30;;;7.07;;
20894;SDS011;10607;42.066;24.742;2023-05-20T08:26:08;16.38;;;6.55;;
20894;SDS011;10607;42.066;24.742;2023-05-20T08:28:33;12.18;;;6.95;;
20894;SDS011;10607;42.066;24.742;2023-05-20T08:31:01;11.63;;;6.90;;
20894;SDS011;10607;42.066;24.742;2023-05-20T08:33:26;10.98;;;6.70;;
20894;SDS011;10607;42.066;24.742;2023-05-20T08:35:51;9.60;;;6.40;;
20894;SDS011;10607;42.066;24.742;2023-05-20T08:38:16;8.95;;;5.82;;
20894;SDS011;10607;42.066;24.742;2023-05-20T08:40:42;12.00;;;6.38;;
20894;SDS011;10607;42.066;24.742;2023-05-20T08:43:07;13.73;;;6.05;;
20894;SDS011;10607;42.066;24.742;2023-05-20T08:45:33;10.38;;;6.22;;
20894;SDS011;10607;42.066;24.742;2023-05-20T08:48:01;8.75;;;5.80;;
20894;SDS011;10607;42.066;24.742;2023-05-20T08:50:28;14.13;;;6.40;;
20894;SDS011;10607;42.066;24.742;2023-05-20T08:52:54;11.35;;;6.43;;
20894;SDS011;10607;42.066;24.742;2023-05-20T08:55:23;10.40;;;5.75;;
20894;SDS011;10607;42.066;24.742;2023-05-20T08:57:49;11.75;;;5.70;;
20894;SDS011;10607;42.066;24.742;2023-05-20T09:00:15;10.57;;;6.03;;
20894;SDS011;10607;42.066;24.742;2023-05-20T09:02:41;11.27;;;5.18;;
20894;SDS011;10607;42.066;24.742;2023-05-20T09:05:07;11.75;;;5.22;;
20894;SDS011;10607;42.066;24.742;2023-05-20T09:07:34;11.48;;;5.38;;
20894;SDS011;10607;42.066;24.742;2023-05-20T09:10:00;11.82;;;5.40;;
20894;SDS011;10607;42.066;24.742;2023-05-20T09:12:25;10.00;;;5.35;;
20894;SDS011;10607;42.066;24.742;2023-05-20T09:14:51;11.52;;;5.88;;
20894;SDS011;10607;42.066;24.742;2023-05-20T09:17:16;9.30;;;5.90;;
20894;SDS011;10607;42.066;24.742;2023-05-20T09:19:46;9.20;;;5.90;;
20894;SDS011;10607;42.066;24.742;2023-05-20T09:22:11;14.23;;;6.43;;
20894;SDS011;10607;42.066;24.742;2023-05-20T09:24:37;12.55;;;5.47;;
20894;SDS011;10607;42.066;24.742;2023-05-20T09:27:02;8.57;;;5.57;;
20894;SDS011;10607;42.066;24.742;2023-05-20T09:29:27;12.77;;;5.95;;
20894;SDS011;10607;42.066;24.742;2023-05-20T09:31:57;6.20;;;5.47;;
20894;SDS011;10607;42.066;24.742;2023-05-20T09:34:22;10.57;;;5.70;;
20894;SDS011;10607;42.066;24.742;2023-05-20T09:36:48;9.90;;;5.72;;
20894;SDS011;10607;42.066;24.742;2023-05-20T09:39:18;7.30;;;5.50;;
20894;SDS011;10607;42.066;24.742;2023-05-20T09:44:11;7.57;;;5.63;;
20894;SDS011;10607;42.066;24.742;2023-05-20T09:46:37;8.23;;;5.40;;
20894;SDS011;10607;42.066;24.742;2023-05-20T09:49:03;7.85;;;5.43;;
20894;SDS011;10607;42.066;24.742;2023-05-20T09:51:30;11.10;;;5.70;;
20894;SDS011;10607;42.066;24.742;2023-05-20T09:53:56;9.75;;;5.03;;
20894;SDS011;10607;42.066;24.742;2023-05-20T09:56:22;11.82;;;5.40;;
20894;SDS011;10607;42.066;24.742;2023-05-20T09:58:48;6.00;;;4.75;;
20894;SDS011;10607;42.066;24.742;2023-05-20T10:01:14;8.90;;;5.57;;
20894;SDS011;10607;42.066;24.742;2023-05-20T10:03:39;9.15;;;5.20;;
20894;SDS011;10607;42.066;24.742;2023-05-20T10:11:34;8.55;;;5.80;;
20894;SDS011;10607;42.066;24.742;2023-05-20T10:14:06;7.15;;;5.35;;
20894;SDS011;10607;42.066;24.742;2023-05-20T10:21:36;13.65;;;5.13;;
20894;SDS011;10607;42.066;24.742;2023-05-20T10:24:07;12.45;;;5.88;;
20894;SDS011;10607;42.066;24.742;2023-05-20T10:26:36;8.80;;;5.80;;
20894;SDS011;10607;42.066;24.742;2023-05-20T10:29:13;7.53;;;5.95;;
20894;SDS011;10607;42.066;24.742;2023-05-20T10:31:43;10.18;;;5.57;;
20894;SDS011;10607;42.066;24.742;2023-05-20T10:34:13;13.07;;;5.57;;
20894;SDS011;10607;42.066;24.742;2023-05-20T10:36:38;8.55;;;5.60;;
20894;SDS011;10607;42.066;24.742;2023-05-20T10:39:13;8.52;;;5.60;;
20894;SDS011;10607;42.066;24.742;2023-05-20T10:41:40;7.15;;;5.32;;
20894;SDS011;10607;42.066;24.742;2023-05-20T10:44:05;13.90;;;5.90;;
20894;SDS011;10607;42.066;24.742;2023-05-20T10:46:31;11.45;;;5.85;;
20894;SDS011;10607;42.066;24.742;2023-05-20T10:48:57;9.45;;;5.47;;
20894;SDS011;10607;42.066;24.742;2023-05-20T10:51:22;10.38;;;5.25;;
20894;SDS011;10607;42.066;24.742;2023-05-20T10:53:50;12.52;;;5.43;;
20894;SDS011;10607;42.066;24.742;2023-05-20T10:56:17;10.05;;;5.75;;
20894;SDS011;10607;42.066;24.742;2023-05-20T10:58:43;7.88;;;5.60;;
20894;SDS011;10607;42.066;24.742;2023-05-20T11:01:08;10.85;;;6.25;;
20894;SDS011;10607;42.066;24.742;2023-05-20T11:03:34;10.45;;;6.20;;
20894;SDS011;10607;42.066;24.742;2023-05-20T11:06:00;23.35;;;14.73;;
20894;SDS011;10607;42.066;24.742;2023-05-20T11:08:28;14.52;;;10.57;;
20894;SDS011;10607;42.066;24.742;2023-05-20T11:10:54;9.82;;;6.60;;
20894;SDS011;10607;42.066;24.742;2023-05-20T11:13:20;8.18;;;6.30;;
20894;SDS011;10607;42.066;24.742;2023-05-20T11:15:47;8.77;;;5.95;;
20894;SDS011;10607;42.066;24.742;2023-05-20T11:18:12;13.57;;;6.60;;
20894;SDS011;10607;42.066;24.742;2023-05-20T11:20:39;9.57;;;6.25;;
20894;SDS011;10607;42.066;24.742;2023-05-20T11:23:04;10.20;;;5.20;;
20894;SDS011;10607;42.066;24.742;2023-05-20T11:25:31;7.75;;;4.75;;
20894;SDS011;10607;42.066;24.742;2023-05-20T11:27:56;9.32;;;4.80;;
20894;SDS011;10607;42.066;24.742;2023-05-20T11:30:22;7.22;;;5.15;;
20894;SDS011;10607;42.066;24.742;2023-05-20T11:32:57;7.60;;;5.20;;
20894;SDS011;10607;42.066;24.742;2023-05-20T11:35:23;9.10;;;5.63;;
20894;SDS011;10607;42.066;24.742;2023-05-20T11:40:24;14.38;;;6.78;;
20894;SDS011;10607;42.066;24.742;2023-05-20T11:42:57;10.20;;;6.15;;
20894;SDS011;10607;42.066;24.742;2023-05-20T11:45:23;10.70;;;4.85;;
20894;SDS011;10607;42.066;24.742;2023-05-20T11:50:44;10.05;;;5.35;;
20894;SDS011;10607;42.066;24.742;2023-05-20T11:53:10;15.88;;;7.50;;
20894;SDS011;10607;42.066;24.742;2023-05-20T11:58:10;8.95;;;4.63;;
20894;SDS011;10607;42.066;24.742;2023-05-20T12:00:36;7.88;;;5.43;;
20894;SDS011;10607;42.066;24.742;2023-05-20T12:03:01;9.57;;;5.63;;
20894;SDS011;10607;42.066;24.742;2023-05-20T12:05:26;8.45;;;5.47;;
20894;SDS011;10607;42.066;24.742;2023-05-20T12:07:52;9.73;;;5.47;;
20894;SDS011;10607;42.066;24.742;2023-05-20T12:10:17;9.52;;;5.10;;
20894;SDS011;10607;42.066;24.742;2023-05-20T12:12:42;10.68;;;5.80;;
20894;SDS011;10607;42.066;24.742;2023-05-20T12:15:09;12.70;;;6.22;;
20894;SDS011;10607;42.066;24.742;2023-05-20T12:17:43;7.70;;;5.72;;
20894;SDS011;10607;42.066;24.742;2023-05-20T12:20:09;10.52;;;5.82;;
20894;SDS011;10607;42.066;24.742;2023-05-20T12:22:34;10.18;;;5.97;;
20894;SDS011;10607;42.066;24.742;2023-05-20T12:24:59;14.27;;;5.95;;
20894;SDS011;10607;42.066;24.742;2023-05-20T12:27:25;16.45;;;5.88;;
20894;SDS011;10607;42.066;24.742;2023-05-20T12:29:50;7.53;;;4.90;;
20894;SDS011;10607;42.066;24.742;2023-05-20T12:32:15;8.80;;;5.15;;
20894;SDS011;10607;42.066;24.742;2023-05-20T12:34:40;8.20;;;5.20;;
20894;SDS011;10607;42.066;24.742;2023-05-20T12:37:06;7.38;;;5.25;;
20894;SDS011;10607;42.066;24.742;2023-05-20T12:39:31;11.45;;;5.80;;
20894;SDS011;10607;42.066;24.742;2023-05-20T12:41:56;8.27;;;5.13;;
20894;SDS011;10607;42.066;24.742;2023-05-20T12:44:22;9.75;;;5.57;;
20894;SDS011;10607;42.066;24.742;2023-05-20T12:46:47;10.65;;;5.18;;
20894;SDS011;10607;42.066;24.742;2023-05-20T12:49:12;5.97;;;4.35;;
20894;SDS011;10607;42.066;24.742;2023-05-20T12:51:37;7.53;;;4.75;;
20894;SDS011;10607;42.066;24.742;2023-05-20T12:54:03;7.72;;;4.75;;
20894;SDS011;10607;42.066;24.742;2023-05-20T12:56:28;11.27;;;5.22;;
20894;SDS011;10607;42.066;24.742;2023-05-20T12:58:54;8.55;;;5.07;;
20894;SDS011;10607;42.066;24.742;2023-05-20T13:01:19;7.28;;;5.05;;
20894;SDS011;10607;42.066;24.742;2023-05-20T13:03:45;10.70;;;5.32;;
20894;SDS011;10607;42.066;24.742;2023-05-20T13:06:11;8.60;;;4.53;;
20894;SDS011;10607;42.066;24.742;2023-05-20T13:08:36;8.23;;;4.57;;
20894;SDS011;10607;42.066;24.742;2023-05-20T13:11:01;7.80;;;4.20;;
20894;SDS011;10607;42.066;24.742;2023-05-20T13:13:27;6.18;;;4.35;;
20894;SDS011;10607;42.066;24.742;2023-05-20T13:15:53;6.35;;;4.43;;
20894;SDS011;10607;42.066;24.742;2023-05-20T13:18:18;6.38;;;4.63;;
20894;SDS011;10607;42.066;24.742;2023-05-20T13:20:44;12.13;;;5.45;;
20894;SDS011;10607;42.066;24.742;2023-05-20T13:23:09;8.68;;;5.20;;
20894;SDS011;10607;42.066;24.742;2023-05-20T13:25:34;10.23;;;4.90;;
20894;SDS011;10607;42.066;24.742;2023-05-20T13:28:00;11.02;;;5.18;;
20894;SDS011;10607;42.066;24.742;2023-05-20T13:30:26;9.77;;;4.90;;
20894;SDS011;10607;42.066;24.742;2023-05-20T13:32:52;10.43;;;5.28;;
20894;SDS011;10607;42.066;24.742;2023-05-20T13:35:17;13.93;;;5.00;;
20894;SDS011;10607;42.066;24.742;2023-05-20T13:37:43;13.27;;;5.05;;
20894;SDS011;10607;42.066;24.742;2023-05-20T13:40:08;12.48;;;4.28;;
20894;SDS011;10607;42.066;24.742;2023-05-20T13:42:34;8.48;;;5.13;;
20894;SDS011;10607;42.066;24.742;2023-05-20T13:44:59;10.52;;;5.03;;
20894;SDS011;10607;42.066;24.742;2023-05-20T13:47:24;8.20;;;4.25;;
20894;SDS011;10607;42.066;24.742;2023-05-20T13:49:50;7.75;;;4.45;;
20894;SDS011;10607;42.066;24.742;2023-05-20T13:52:15;6.97;;;4.43;;
20894;SDS011;10607;42.066;24.742;2023-05-20T13:54:40;7.32;;;4.38;;
20894;SDS011;10607;42.066;24.742;2023-05-20T13:57:08;8.10;;;4.32;;
20894;SDS011;10607;42.066;24.742;2023-05-20T13:59:33;8.95;;;4.45;;
20894;SDS011;10607;42.066;24.742;2023-05-20T14:01:59;7.70;;;4.40;;
20894;SDS011;10607;42.066;24.742;2023-05-20T14:04:25;9.35;;;4.38;;
20894;SDS011;10607;42.066;24.742;2023-05-20T14:06:50;8.73;;;4.20;;
20894;SDS011;10607;42.066;24.742;2023-05-20T14:09:15;9.52;;;4.10;;
20894;SDS011;10607;42.066;24.742;2023-05-20T14:11:41;7.68;;;3.83;;
20894;SDS011;10607;42.066;24.742;2023-05-20T14:14:06;7.28;;;4.65;;
20894;SDS011;10607;42.066;24.742;2023-05-20T14:16:31;9.70;;;4.20;;
20894;SDS011;10607;42.066;24.742;2023-05-20T14:18:57;6.75;;;4.10;;
20894;SDS011;10607;42.066;24.742;2023-05-20T14:21:22;5.72;;;3.80;;
20894;SDS011;10607;42.066;24.742;2023-05-20T14:23:47;7.93;;;4.25;;
20894;SDS011;10607;42.066;24.742;2023-05-20T14:26:13;10.20;;;4.22;;
20894;SDS011;10607;42.066;24.742;2023-05-20T14:28:38;14.93;;;4.95;;
20894;SDS011;10607;42.066;24.742;2023-05-20T14:31:04;6.80;;;4.13;;
20894;SDS011;10607;42.066;24.742;2023-05-20T14:33:29;9.88;;;4.30;;
20894;SDS011;10607;42.066;24.742;2023-05-20T14:35:55;13.40;;;4.80;;